createdAt,value
2019-03-17T00:01:26.952Z,11.53
2019-03-17T00:03:54.979Z,10.53
2019-03-17T00:06:23.080Z,11.53
2019-03-17T00:08:51.006Z,11.87
2019-03-17T00:11:19.194Z,10.93
2019-03-17T00:13:47.250Z,11.00
2019-03-17T00:16:15.281Z,11.50
2019-03-17T00:18:43.370Z,11.07
2019-03-17T00:21:11.163Z,10.60
2019-03-17T00:23:38.898Z,11.10
2019-03-17T00:26:06.757Z,12.20
2019-03-17T00:28:34.466Z,12.10
2019-03-17T00:31:02.147Z,11.27
2019-03-17T00:33:29.926Z,11.67
2019-03-17T00:35:57.906Z,10.20
2019-03-17T00:38:25.644Z,11.80
2019-03-17T00:40:53.310Z,12.50
2019-03-17T00:43:20.967Z,12.40
2019-03-17T00:45:49.798Z,12.70
2019-03-17T00:48:17.491Z,12.40
2019-03-17T00:50:45.369Z,11.87
2019-03-17T00:53:13.153Z,12.00
2019-03-17T00:55:40.820Z,12.07
2019-03-17T00:58:08.521Z,11.50
2019-03-17T01:00:36.159Z,12.00
2019-03-17T01:03:03.959Z,11.70
2019-03-17T01:05:31.761Z,11.67
2019-03-17T01:07:59.640Z,11.37
2019-03-17T01:10:27.345Z,12.03
2019-03-17T01:12:55.098Z,12.20
2019-03-17T01:15:22.840Z,11.17
2019-03-17T01:17:50.676Z,11.37
2019-03-17T01:20:18.380Z,11.73
2019-03-17T01:22:46.016Z,12.30
2019-03-17T01:25:13.617Z,11.13
2019-03-17T01:27:41.193Z,11.50
2019-03-17T01:30:08.932Z,10.90
2019-03-17T01:32:36.558Z,11.00
2019-03-17T01:35:09.621Z,11.47
2019-03-17T01:37:34.663Z,11.03
2019-03-17T01:40:02.382Z,11.10
2019-03-17T01:42:29.951Z,11.10
2019-03-17T01:44:57.638Z,11.33
2019-03-17T01:47:27.707Z,11.23
2019-03-17T01:49:54.896Z,11.77
2019-03-17T01:52:22.512Z,11.33
2019-03-17T01:54:50.115Z,12.83
2019-03-17T01:57:17.738Z,11.83
2019-03-17T01:59:45.410Z,10.73
2019-03-17T02:02:13.063Z,10.80
2019-03-17T02:04:40.761Z,11.23
2019-03-17T02:07:08.417Z,11.73
2019-03-17T02:09:36.128Z,15.60
2019-03-17T02:12:03.772Z,13.17
2019-03-17T02:14:31.569Z,14.33
2019-03-17T02:16:59.187Z,13.80
2019-03-17T02:19:26.841Z,12.83
2019-03-17T02:21:54.554Z,13.07
2019-03-17T02:24:22.234Z,10.07
2019-03-17T02:26:49.858Z,12.50
2019-03-17T02:29:17.562Z,12.67
2019-03-17T02:31:45.145Z,12.67
2019-03-17T02:34:12.966Z,13.27
2019-03-17T02:36:40.618Z,12.83
2019-03-17T02:39:08.313Z,12.43
2019-03-17T02:41:35.949Z,11.60
2019-03-17T02:44:03.649Z,11.20
2019-03-17T02:46:31.271Z,12.20
2019-03-17T02:48:59.015Z,12.23
2019-03-17T02:51:26.593Z,11.73
2019-03-17T02:53:54.278Z,12.40
2019-03-17T02:56:21.886Z,11.00
2019-03-17T02:58:49.578Z,11.40
2019-03-17T03:01:17.267Z,11.10
2019-03-17T03:03:45.031Z,10.60
2019-03-17T03:06:13.055Z,11.43
2019-03-17T03:08:42.307Z,11.67
2019-03-17T03:11:10.190Z,11.80
2019-03-17T03:13:38.304Z,11.83
2019-03-17T03:16:06.419Z,11.80
2019-03-17T03:18:34.674Z,11.80
2019-03-17T03:21:02.273Z,13.13
2019-03-17T03:23:30.297Z,11.17
2019-03-17T03:25:58.281Z,11.77
2019-03-17T03:28:28.162Z,11.53
2019-03-17T03:30:56.214Z,12.17
2019-03-17T03:33:24.065Z,11.27
2019-03-17T03:35:52.239Z,11.70
2019-03-17T03:38:20.263Z,11.23
2019-03-17T03:40:48.121Z,11.80
2019-03-17T03:43:16.212Z,12.37
2019-03-17T03:45:44.261Z,11.63
2019-03-17T03:48:12.359Z,11.40
2019-03-17T03:50:40.215Z,12.43
2019-03-17T03:53:08.168Z,11.63
2019-03-17T03:55:36.216Z,12.53
2019-03-17T03:58:04.218Z,12.13
2019-03-17T04:00:32.283Z,11.63
2019-03-17T04:03:00.357Z,11.23
2019-03-17T04:05:32.408Z,11.50
2019-03-17T04:07:58.498Z,11.93
2019-03-17T04:10:26.472Z,12.70
2019-03-17T04:12:54.615Z,12.27
2019-03-17T04:15:22.614Z,12.57
2019-03-17T04:17:50.849Z,10.90
2019-03-17T04:20:18.707Z,12.73
2019-03-17T04:22:46.606Z,11.53
2019-03-17T04:25:16.472Z,11.27
2019-03-17T04:27:44.376Z,12.43
2019-03-17T04:30:12.529Z,11.67
2019-03-17T04:32:40.525Z,11.93
2019-03-17T04:35:08.679Z,12.30
2019-03-17T04:37:36.644Z,11.50
2019-03-17T04:40:04.499Z,11.63
2019-03-17T04:42:32.202Z,11.73
2019-03-17T04:44:59.895Z,11.77
2019-03-17T04:47:27.608Z,10.70
2019-03-17T04:49:55.346Z,11.80
2019-03-17T04:52:23.039Z,11.00
2019-03-17T04:54:50.771Z,12.50
2019-03-17T04:57:18.498Z,13.73
2019-03-17T04:59:46.216Z,15.90
2019-03-17T05:02:14.926Z,15.13
2019-03-17T05:04:42.607Z,17.23
2019-03-17T05:07:10.383Z,17.33
2019-03-17T05:09:38.084Z,17.60
2019-03-17T05:12:06.011Z,17.07
2019-03-17T05:14:33.751Z,17.27
2019-03-17T05:17:01.427Z,16.03
2019-03-17T05:19:29.130Z,15.17
2019-03-17T05:21:57.870Z,14.33
2019-03-17T05:24:25.622Z,13.67
2019-03-17T05:26:53.222Z,13.93
2019-03-17T05:29:20.927Z,13.53
2019-03-17T05:31:48.540Z,13.80
2019-03-17T05:34:16.313Z,12.43
2019-03-17T05:36:44.873Z,12.70
2019-03-17T05:39:12.562Z,13.07
2019-03-17T05:41:40.288Z,13.73
2019-03-17T05:44:07.987Z,14.67
2019-03-17T05:46:35.575Z,14.90
2019-03-17T05:49:03.477Z,14.13
2019-03-17T05:51:32.526Z,11.97
2019-03-17T05:54:00.155Z,12.43
2019-03-17T05:56:27.816Z,17.50
2019-03-17T05:58:57.161Z,14.70
2019-03-17T06:01:24.722Z,12.67
2019-03-17T06:03:52.420Z,12.00
2019-03-17T06:06:19.975Z,12.80
2019-03-17T06:08:47.674Z,11.87
2019-03-17T06:11:15.316Z,12.70
2019-03-17T06:13:43.369Z,12.93
2019-03-17T06:16:11.364Z,12.17
2019-03-17T06:18:39.262Z,12.33
2019-03-17T06:21:06.862Z,14.00
2019-03-17T06:23:34.743Z,13.03
2019-03-17T06:26:02.340Z,13.47
2019-03-17T06:28:30.010Z,13.47
2019-03-17T06:30:57.613Z,13.60
2019-03-17T06:33:25.293Z,13.63
2019-03-17T06:35:52.894Z,13.80
2019-03-17T06:38:20.566Z,12.90
2019-03-17T06:40:48.264Z,12.90
2019-03-17T06:43:15.978Z,13.80
2019-03-17T06:45:43.550Z,12.87
2019-03-17T06:48:11.162Z,13.67
2019-03-17T06:50:38.728Z,13.47
2019-03-17T06:53:06.474Z,13.93
2019-03-17T06:55:34.071Z,13.47
2019-03-17T06:58:01.676Z,12.43
2019-03-17T07:00:29.478Z,13.30
2019-03-17T07:02:57.254Z,13.00
2019-03-17T07:05:24.952Z,12.17
2019-03-17T07:07:52.691Z,13.17
2019-03-17T07:10:22.061Z,12.50
2019-03-17T07:12:49.854Z,12.10
2019-03-17T07:15:17.523Z,13.30
2019-03-17T07:17:45.157Z,12.73
2019-03-17T07:20:12.789Z,13.07
2019-03-17T07:22:40.403Z,13.10
2019-03-17T07:25:08.485Z,13.97
2019-03-17T07:27:36.161Z,13.07
2019-03-17T07:30:05.791Z,14.30
2019-03-17T07:32:33.561Z,13.50
2019-03-17T07:35:01.242Z,12.93
2019-03-17T07:37:28.951Z,14.00
2019-03-17T07:39:56.794Z,15.30
2019-03-17T07:42:24.631Z,14.63
2019-03-17T07:44:52.388Z,15.40
2019-03-17T07:47:20.033Z,15.13
2019-03-17T07:49:47.707Z,13.80
2019-03-17T07:52:15.379Z,14.10
2019-03-17T07:54:43.090Z,13.83
2019-03-17T07:57:12.457Z,14.80
2019-03-17T07:59:40.145Z,13.80
2019-03-17T08:02:07.806Z,12.53
2019-03-17T08:04:42.318Z,13.20
2019-03-17T08:07:05.046Z,12.13
2019-03-17T08:09:33.125Z,11.43
2019-03-17T08:12:00.701Z,11.37
2019-03-17T08:14:28.391Z,11.27
2019-03-17T08:16:56.602Z,11.13
2019-03-17T08:19:24.647Z,10.30
2019-03-17T08:21:52.272Z,10.37
2019-03-17T08:24:19.974Z,9.30
2019-03-17T08:26:50.036Z,10.30
2019-03-17T08:29:19.158Z,10.37
2019-03-17T08:31:47.165Z,9.40
2019-03-17T08:34:15.255Z,9.93
2019-03-17T08:36:43.069Z,10.20
2019-03-17T08:39:11.031Z,9.93
2019-03-17T08:41:39.207Z,10.10
2019-03-17T08:44:08.937Z,9.93
2019-03-17T08:46:36.964Z,9.47
2019-03-17T08:49:05.117Z,9.80
2019-03-17T08:51:33.613Z,9.47
2019-03-17T08:54:01.823Z,9.20
2019-03-17T08:56:29.564Z,8.80
2019-03-17T08:58:57.343Z,9.33
2019-03-17T09:01:25.362Z,9.20
2019-03-17T09:03:53.439Z,8.60
2019-03-17T09:06:21.087Z,8.43
2019-03-17T09:08:48.859Z,8.50
2019-03-17T09:11:16.476Z,6.93
2019-03-17T09:13:44.117Z,7.10
2019-03-17T09:16:11.678Z,6.50
2019-03-17T09:18:39.396Z,5.53
2019-03-17T09:21:06.972Z,5.37
2019-03-17T09:23:34.685Z,5.10
2019-03-17T09:26:03.267Z,4.50
2019-03-17T09:28:30.994Z,4.30
2019-03-17T09:30:58.648Z,4.93
2019-03-17T09:33:26.846Z,5.00
2019-03-17T09:35:54.790Z,4.97
2019-03-17T09:38:22.858Z,5.07
2019-03-17T09:40:50.713Z,5.53
2019-03-17T09:43:18.502Z,5.40
2019-03-17T09:45:46.153Z,4.43
2019-03-17T09:48:13.835Z,4.17
2019-03-17T09:50:41.496Z,5.03
2019-03-17T09:53:09.073Z,4.50
2019-03-17T09:55:36.800Z,4.77
2019-03-17T09:58:04.481Z,4.50
2019-03-17T10:00:32.076Z,4.60
2019-03-17T10:02:59.687Z,5.00
2019-03-17T10:05:27.365Z,4.63
2019-03-17T10:07:55.063Z,5.07
2019-03-17T10:10:22.887Z,5.80
2019-03-17T10:12:50.545Z,5.70
2019-03-17T10:15:22.965Z,5.37
2019-03-17T10:17:52.473Z,5.20
2019-03-17T10:20:20.282Z,5.10
2019-03-17T10:22:47.939Z,4.77
2019-03-17T10:25:16.820Z,5.00
2019-03-17T10:27:45.587Z,5.37
2019-03-17T10:30:13.631Z,5.10
2019-03-17T10:32:41.177Z,4.60
2019-03-17T10:35:08.883Z,5.00
2019-03-17T10:37:36.561Z,5.07
2019-03-17T10:40:07.318Z,5.40
2019-03-17T10:42:35.069Z,4.97
2019-03-17T10:45:02.709Z,5.60
2019-03-17T10:47:34.298Z,5.13
2019-03-17T10:50:07.821Z,4.90
2019-03-17T10:52:38.005Z,4.93
2019-03-17T10:55:07.659Z,5.17
2019-03-17T10:57:35.364Z,5.10
2019-03-17T11:00:08.780Z,5.63
2019-03-17T11:02:37.673Z,5.47
2019-03-17T11:05:07.482Z,5.40
2019-03-17T11:07:37.935Z,4.87
2019-03-17T11:10:06.731Z,5.00
2019-03-17T11:12:34.383Z,5.57
2019-03-17T11:15:03.716Z,5.00
2019-03-17T11:17:33.646Z,4.37
2019-03-17T11:20:01.737Z,5.07
2019-03-17T11:22:29.530Z,5.30
2019-03-17T11:24:59.797Z,5.20
2019-03-17T11:27:30.091Z,4.80
2019-03-17T11:29:57.919Z,5.80
2019-03-17T11:32:25.509Z,4.40
2019-03-17T11:34:53.136Z,4.27
2019-03-17T11:37:23.454Z,4.50
2019-03-17T11:39:50.348Z,4.47
2019-03-17T11:42:18.077Z,4.30
2019-03-17T11:44:45.810Z,4.00
2019-03-17T11:47:13.397Z,3.77
2019-03-17T11:49:41.145Z,3.77
2019-03-17T11:52:08.871Z,3.60
2019-03-17T11:54:36.449Z,3.70
2019-03-17T11:57:04.097Z,3.63
2019-03-17T11:59:31.748Z,3.90
2019-03-17T12:01:59.387Z,3.80
2019-03-17T12:04:27.076Z,4.00
2019-03-17T12:06:54.718Z,3.60
2019-03-17T12:09:29.034Z,4.57
2019-03-17T12:11:51.860Z,3.47
2019-03-17T12:14:19.510Z,3.80
2019-03-17T12:16:47.196Z,3.67
2019-03-17T12:19:14.804Z,4.30
2019-03-17T12:21:42.435Z,4.43
2019-03-17T12:24:11.057Z,3.53
2019-03-17T12:26:38.723Z,3.50
2019-03-17T12:29:07.186Z,4.27
2019-03-17T12:31:34.820Z,4.13
2019-03-17T12:34:02.679Z,3.93
2019-03-17T12:36:30.448Z,3.90
2019-03-17T12:38:58.170Z,4.00
2019-03-17T12:41:25.920Z,4.10
2019-03-17T12:43:53.621Z,4.40
2019-03-17T12:46:21.196Z,4.30
2019-03-17T12:48:50.031Z,6.43
2019-03-17T12:51:17.667Z,3.97
2019-03-17T12:53:45.349Z,4.03
2019-03-17T12:56:12.883Z,4.30
2019-03-17T12:58:43.665Z,4.17
2019-03-17T13:01:11.307Z,4.40
2019-03-17T13:03:39.001Z,4.03
2019-03-17T13:06:07.641Z,3.80
2019-03-17T13:08:35.300Z,3.50
2019-03-17T13:11:02.938Z,3.57
2019-03-17T13:13:32.107Z,3.73
2019-03-17T13:15:59.682Z,4.10
2019-03-17T13:18:31.131Z,3.70
2019-03-17T13:20:59.865Z,4.23
2019-03-17T13:23:27.515Z,3.97
2019-03-17T13:25:55.085Z,3.83
2019-03-17T13:28:22.681Z,3.50
2019-03-17T13:30:50.305Z,3.87
2019-03-17T13:33:17.946Z,4.07
2019-03-17T13:35:45.789Z,3.90
2019-03-17T13:38:13.350Z,4.10
2019-03-17T13:40:40.991Z,4.20
2019-03-17T13:43:08.587Z,4.03
2019-03-17T13:45:36.263Z,4.30
2019-03-17T13:48:03.970Z,3.83
2019-03-17T13:50:31.674Z,4.67
2019-03-17T13:52:59.342Z,3.77
2019-03-17T13:55:26.925Z,4.50
2019-03-17T13:57:55.788Z,3.63
2019-03-17T14:00:23.493Z,4.00
2019-03-17T14:02:51.181Z,4.27
2019-03-17T14:05:18.853Z,3.70
2019-03-17T14:07:46.436Z,4.33
2019-03-17T14:10:14.942Z,6.37
2019-03-17T14:12:42.650Z,3.63
2019-03-17T14:15:11.717Z,3.90
2019-03-17T14:17:39.403Z,3.87
2019-03-17T14:20:08.945Z,3.80
2019-03-17T14:22:36.637Z,3.70
2019-03-17T14:25:06.422Z,3.73
2019-03-17T14:27:34.114Z,3.77
2019-03-17T14:30:01.673Z,3.70
2019-03-17T14:32:29.292Z,3.87
2019-03-17T14:34:56.911Z,4.07
2019-03-17T14:37:24.608Z,3.17
2019-03-17T14:39:52.343Z,3.33
2019-03-17T14:42:20.025Z,2.87
2019-03-17T14:44:47.730Z,3.17
2019-03-17T14:47:15.399Z,3.37
2019-03-17T14:49:43.023Z,3.00
2019-03-17T14:52:10.703Z,3.87
2019-03-17T14:54:38.292Z,3.17
2019-03-17T14:57:06.147Z,3.53
2019-03-17T14:59:33.761Z,3.40
2019-03-17T15:02:01.357Z,2.90
2019-03-17T15:04:29.296Z,3.57
2019-03-17T15:06:56.854Z,3.23
2019-03-17T15:09:24.447Z,3.03
2019-03-17T15:11:52.054Z,3.70
2019-03-17T15:14:20.013Z,3.60
2019-03-17T15:16:47.797Z,3.00
2019-03-17T15:19:15.779Z,2.83
2019-03-17T15:21:43.632Z,3.10
2019-03-17T15:24:11.279Z,3.07
2019-03-17T15:26:39.287Z,3.20
2019-03-17T15:29:07.242Z,2.83
2019-03-17T15:31:35.101Z,3.03
2019-03-17T15:34:02.983Z,2.63
2019-03-17T15:36:30.836Z,2.67
2019-03-17T15:38:58.881Z,2.70
2019-03-17T15:41:26.813Z,4.47
2019-03-17T15:43:55.023Z,2.60
2019-03-17T15:46:22.884Z,2.63
2019-03-17T15:48:51.045Z,3.20
2019-03-17T15:51:20.849Z,3.00
2019-03-17T15:53:49.253Z,3.03
2019-03-17T15:56:17.273Z,2.77
2019-03-17T15:58:45.509Z,3.37
2019-03-17T16:01:13.534Z,3.00
2019-03-17T16:03:41.539Z,2.70
2019-03-17T16:06:09.571Z,3.20
2019-03-17T16:08:37.458Z,3.27
2019-03-17T16:11:05.855Z,3.20
2019-03-17T16:13:34.055Z,2.87
2019-03-17T16:16:01.927Z,2.87
2019-03-17T16:18:29.798Z,3.07
2019-03-17T16:20:57.712Z,3.10
2019-03-17T16:23:25.704Z,2.97
2019-03-17T16:25:53.730Z,3.03
2019-03-17T16:28:21.798Z,2.80
2019-03-17T16:30:49.688Z,2.90
2019-03-17T16:33:17.791Z,2.70
2019-03-17T16:35:46.448Z,3.60
2019-03-17T16:38:14.721Z,3.00
2019-03-17T16:40:43.872Z,3.40
2019-03-17T16:43:21.152Z,3.33
2019-03-17T16:45:49.130Z,3.03
2019-03-17T16:48:18.601Z,2.90
2019-03-17T16:50:46.820Z,3.07
2019-03-17T16:53:15.069Z,2.90
2019-03-17T16:55:45.035Z,2.97
2019-03-17T16:58:12.989Z,2.90
2019-03-17T17:00:41.220Z,2.70
2019-03-17T17:03:09.305Z,3.03
2019-03-17T17:05:37.222Z,3.00
2019-03-17T17:08:05.118Z,3.27
2019-03-17T17:10:33.056Z,2.73
2019-03-17T17:13:01.214Z,2.80
2019-03-17T17:15:29.334Z,2.93
2019-03-17T17:17:58.214Z,2.90
2019-03-17T17:20:27.910Z,3.17
2019-03-17T17:22:57.000Z,3.10
2019-03-17T17:25:24.988Z,2.77
2019-03-17T17:27:52.980Z,2.83
2019-03-17T17:30:22.062Z,3.10
2019-03-17T17:32:50.125Z,3.30
2019-03-17T17:35:18.658Z,3.03
2019-03-17T17:37:46.620Z,3.23
2019-03-17T17:40:15.281Z,3.00
2019-03-17T17:42:43.260Z,2.53
2019-03-17T17:45:12.503Z,2.87
2019-03-17T17:47:40.294Z,3.07
2019-03-17T17:50:09.402Z,2.93
2019-03-17T17:52:37.405Z,3.00
2019-03-17T17:55:07.274Z,2.70
2019-03-17T17:57:35.184Z,2.87
2019-03-17T18:00:04.240Z,3.00
2019-03-17T18:02:32.539Z,2.67
2019-03-17T18:05:00.626Z,2.53
2019-03-17T18:07:28.474Z,2.93
2019-03-17T18:09:56.515Z,2.50
2019-03-17T18:12:24.528Z,2.70
2019-03-17T18:14:52.478Z,3.13
2019-03-17T18:17:20.245Z,3.43
2019-03-17T18:19:48.224Z,2.60
2019-03-17T18:22:16.140Z,2.90
2019-03-17T18:24:44.052Z,3.07
2019-03-17T18:27:14.937Z,3.13
2019-03-17T18:29:42.964Z,3.40
2019-03-17T18:32:11.120Z,3.10
2019-03-17T18:34:39.123Z,3.03
2019-03-17T18:44:19.752Z,2.03
2019-03-17T18:46:47.873Z,0.90
2019-03-17T18:49:15.929Z,2.57
2019-03-17T19:05:20.182Z,2.40
2019-03-17T19:07:47.991Z,2.67
2019-03-17T19:10:16.718Z,2.87
2019-03-17T19:43:34.616Z,2.63
2019-03-17T19:46:02.387Z,2.73
2019-03-17T19:52:01.411Z,2.60
2019-03-17T19:54:29.122Z,2.67
2019-03-17T19:56:56.792Z,2.43
2019-03-17T20:01:25.311Z,3.50
2019-03-17T20:03:52.882Z,3.47
2019-03-17T20:08:47.493Z,3.10
2019-03-17T20:11:16.147Z,3.37
2019-03-17T20:13:44.939Z,3.13
2019-03-17T20:16:15.139Z,3.70
2019-03-17T20:18:43.635Z,3.30
2019-03-17T20:21:12.114Z,3.67
2019-03-17T20:23:40.708Z,4.40
2019-03-17T20:26:09.329Z,3.67
2019-03-17T20:28:37.971Z,4.00
2019-03-17T20:31:06.471Z,3.33
2019-03-17T20:33:34.954Z,3.50
2019-03-17T20:36:03.428Z,3.70
2019-03-17T20:38:31.967Z,3.97
2019-03-17T20:41:00.466Z,4.13
2019-03-17T20:43:34.803Z,4.30
2019-03-17T20:45:59.260Z,5.37
2019-03-17T20:48:27.722Z,4.47
2019-03-17T20:50:59.076Z,3.53
2019-03-17T20:53:26.509Z,3.63
2019-03-17T20:55:55.544Z,2.93
2019-03-17T20:58:23.915Z,3.77
2019-03-17T21:00:53.434Z,3.33
2019-03-17T21:03:22.211Z,3.37
2019-03-17T21:05:50.674Z,3.47
2019-03-17T21:08:19.446Z,3.57
2019-03-17T21:10:50.036Z,3.60
2019-03-17T21:13:18.460Z,4.10
2019-03-17T21:15:46.994Z,3.97
2019-03-17T21:18:15.835Z,3.70
2019-03-17T21:20:44.363Z,4.43
2019-03-17T21:23:13.234Z,3.70
2019-03-17T21:25:41.650Z,4.10
2019-03-17T21:28:10.174Z,3.43
2019-03-17T21:30:41.119Z,4.13
2019-03-17T21:33:09.595Z,3.40
2019-03-17T21:35:38.026Z,3.80
2019-03-17T21:38:06.635Z,3.90
2019-03-17T21:40:35.267Z,3.73
2019-03-17T21:43:03.744Z,3.83
2019-03-17T21:45:32.611Z,3.70
2019-03-17T21:48:01.092Z,3.77
2019-03-17T21:50:29.812Z,4.10
2019-03-17T21:53:01.108Z,4.30
2019-03-17T21:55:29.693Z,4.07
2019-03-17T21:57:57.990Z,3.40
2019-03-17T22:00:26.665Z,4.27
2019-03-17T22:02:55.441Z,4.07
2019-03-17T22:05:24.313Z,3.87
2019-03-17T22:07:54.573Z,4.10
2019-03-17T22:10:22.934Z,4.13
2019-03-17T22:12:51.365Z,4.20
2019-03-17T22:15:19.846Z,4.43
2019-03-17T22:17:48.467Z,4.00
2019-03-17T22:20:16.914Z,4.00
2019-03-17T22:22:45.531Z,4.17
2019-03-17T22:25:14.542Z,5.13
2019-03-17T22:27:44.274Z,4.37
2019-03-17T22:30:12.967Z,4.00
2019-03-17T22:32:41.753Z,4.43
2019-03-17T22:35:10.219Z,4.57
2019-03-17T22:37:38.931Z,4.57
2019-03-17T22:40:09.153Z,5.03
2019-03-17T22:42:38.684Z,4.20
2019-03-17T22:45:07.702Z,4.23
2019-03-17T22:47:36.569Z,5.03
2019-03-17T22:50:05.485Z,5.17
2019-03-17T22:52:33.878Z,4.97
2019-03-17T22:55:02.459Z,4.57
2019-03-17T22:57:30.967Z,4.70
2019-03-17T23:00:00.669Z,4.40
2019-03-17T23:02:29.015Z,4.83
2019-03-17T23:04:57.578Z,4.80
2019-03-17T23:07:26.109Z,5.07
2019-03-17T23:09:54.668Z,4.77
2019-03-17T23:12:23.180Z,4.83
2019-03-17T23:14:52.012Z,4.70
2019-03-17T23:17:20.476Z,4.63
2019-03-17T23:19:48.990Z,4.60
2019-03-17T23:22:17.534Z,4.40
2019-03-17T23:24:46.089Z,5.20
2019-03-17T23:27:14.584Z,5.00
2019-03-17T23:29:43.179Z,5.00
2019-03-17T23:32:12.620Z,5.43
2019-03-17T23:34:42.100Z,4.97
2019-03-17T23:37:10.379Z,5.17
2019-03-17T23:39:38.967Z,5.20
2019-03-17T23:42:07.274Z,5.00
2019-03-17T23:44:35.696Z,4.57
2019-03-17T23:47:04.067Z,4.43
2019-03-17T23:49:32.476Z,4.20
2019-03-17T23:52:00.840Z,4.27
2019-03-17T23:54:29.324Z,3.97
2019-03-17T23:56:57.657Z,3.80
2019-03-17T23:59:25.967Z,2.63
